Time;durP1;ratioP1;P1;durP2;ratioP2;P2;SDS_P1;SDS_P2;PMS_P1;PMS_P2;Temp;Humidity;BMP_temperature;BMP_pressure;BME280_temperature;BME280_humidity;BME280_pressure;Samples;Min_cycle;Max_cycle;Signal;HPM_P1;HPM_P2
2021/12/15 00:00:17;;;;;;;37.00;13.40;;;;;;;;;;5010749;28;20021;-72
2021/12/15 00:02:44;;;;;;;39.90;13.90;;;;;;;;;;5031994;28;20033;-72
2021/12/15 00:05:13;;;;;;;40.85;13.68;;;;;;;;;;5027992;28;20072;-72
2021/12/15 00:07:39;;;;;;;32.65;12.25;;;;;;;;;;5011394;28;20091;-72
2021/12/15 00:10:06;;;;;;;36.28;13.23;;;;;;;;;;5026040;28;20029;-72
2021/12/15 00:12:32;;;;;;;39.53;13.25;;;;;;;;;;5028140;28;20029;-72
2021/12/15 00:14:57;;;;;;;37.15;13.60;;;;;;;;;;5026486;28;20040;-72
2021/12/15 00:17:23;;;;;;;40.30;14.73;;;;;;;;;;5028658;28;20026;-72
2021/12/15 00:19:50;;;;;;;37.33;13.77;;;;;;;;;;5005031;28;20042;-72
2021/12/15 00:22:15;;;;;;;36.80;12.90;;;;;;;;;;5008406;28;20037;-72
2021/12/15 00:24:41;;;;;;;48.08;14.85;;;;;;;;;;5027641;28;20036;-72
2021/12/15 00:27:07;;;;;;;41.63;15.27;;;;;;;;;;5025536;28;20034;-72
2021/12/15 00:29:32;;;;;;;40.50;14.73;;;;;;;;;;5027384;28;20041;-72
2021/12/15 00:32:02;;;;;;;38.33;13.73;;;;;;;;;;5009712;28;20044;-73
2021/12/15 00:34:28;;;;;;;38.03;13.75;;;;;;;;;;5010643;28;20080;-72
2021/12/15 00:36:53;;;;;;;38.78;12.88;;;;;;;;;;5008706;28;20079;-72
2021/12/15 00:39:21;;;;;;;45.88;16.10;;;;;;;;;;5028654;28;20028;-72
2021/12/15 00:41:47;;;;;;;35.63;13.50;;;;;;;;;;5027088;28;20042;-72
2021/12/15 00:44:12;;;;;;;39.53;14.25;;;;;;;;;;5033736;28;20052;-72
2021/12/15 00:46:38;;;;;;;39.78;13.18;;;;;;;;;;5027961;28;20591;-72
2021/12/15 00:49:05;;;;;;;36.33;13.18;;;;;;;;;;5018108;28;20032;-72
2021/12/15 00:51:31;;;;;;;41.10;13.45;;;;;;;;;;5000179;28;20044;-72
2021/12/15 00:53:57;;;;;;;37.80;13.65;;;;;;;;;;5026539;28;20041;-72
2021/12/15 00:56:22;;;;;;;38.90;13.75;;;;;;;;;;5027758;28;20033;-72
2021/12/15 00:58:48;;;;;;;39.97;12.73;;;;;;;;;;5025977;28;20475;-72
2021/12/15 01:01:14;;;;;;;33.80;12.98;;;;;;;;;;5032838;28;20110;-72
2021/12/15 01:03:40;;;;;;;35.85;13.82;;;;;;;;;;5023960;28;20048;-72
2021/12/15 01:06:11;;;;;;;39.83;13.40;;;;;;;;;;4993502;28;20542;-72
2021/12/15 01:08:42;;;;;;;36.88;12.60;;;;;;;;;;5026435;28;20030;-72
2021/12/15 01:11:19;;;;;;;38.50;13.70;;;;;;;;;;5019310;28;20435;-72
2021/12/15 01:22:25;;;;;;;34.45;12.65;;;;;;;;;;4928684;29;20043;-72
2021/12/15 01:24:55;;;;;;;34.20;12.80;;;;;;;;;;5009590;28;20049;-72
2021/12/15 01:27:21;;;;;;;37.30;12.63;;;;;;;;;;5009677;28;20726;-72
2021/12/15 01:29:47;;;;;;;33.40;12.40;;;;;;;;;;5028717;28;20124;-72
2021/12/15 01:32:12;;;;;;;40.38;13.25;;;;;;;;;;5027101;28;20124;-72
2021/12/15 01:34:38;;;;;;;37.15;12.90;;;;;;;;;;5029358;28;20401;-72
2021/12/15 01:37:06;;;;;;;35.08;12.60;;;;;;;;;;5027268;28;20048;-72
2021/12/15 01:39:31;;;;;;;37.50;17.52;;;;;;;;;;5026253;28;20694;-72
2021/12/15 01:41:57;;;;;;;37.38;13.60;;;;;;;;;;5025900;28;20029;-72
2021/12/15 01:46:58;;;;;;;42.95;14.50;;;;;;;;;;5025078;28;20037;-72
2021/12/15 01:49:38;;;;;;;40.47;13.32;;;;;;;;;;5004614;28;20150;-72
2021/12/15 01:52:14;;;;;;;38.55;13.70;;;;;;;;;;5008040;28;20040;-72
2021/12/15 01:54:45;;;;;;;40.40;12.93;;;;;;;;;;5007470;28;20112;-72
2021/12/15 01:57:12;;;;;;;39.10;13.18;;;;;;;;;;4982366;28;20057;-72
2021/12/15 01:59:39;;;;;;;33.72;13.20;;;;;;;;;;5007579;28;20203;-72
2021/12/15 02:02:06;;;;;;;45.67;14.48;;;;;;;;;;5007102;28;20050;-72
2021/12/15 02:04:32;;;;;;;44.17;14.32;;;;;;;;;;5008410;28;20038;-72
2021/12/15 02:06:58;;;;;;;40.45;14.57;;;;;;;;;;5006088;28;20053;-72
2021/12/15 02:12:21;;;;;;;41.10;14.40;;;;;;;;;;4952800;28;20094;-72
2021/12/15 02:14:46;;;;;;;44.65;19.77;;;;;;;;;;5008272;28;20423;-72
2021/12/15 02:17:12;;;;;;;51.42;14.98;;;;;;;;;;5006750;28;20582;-72
2021/12/15 02:19:38;;;;;;;42.95;15.50;;;;;;;;;;5002798;28;20528;-72
2021/12/15 02:22:04;;;;;;;40.75;14.88;;;;;;;;;;5004083;28;20041;-73
2021/12/15 02:24:29;;;;;;;38.42;14.55;;;;;;;;;;5009926;28;20642;-72
2021/12/15 02:26:59;;;;;;;45.17;15.10;;;;;;;;;;5010695;28;20037;-72
2021/12/15 02:29:26;;;;;;;44.85;14.70;;;;;;;;;;5010700;28;20038;-72
2021/12/15 02:37:15;;;;;;;40.95;14.57;;;;;;;;;;5009716;28;20053;-72
2021/12/15 02:39:42;;;;;;;47.75;15.18;;;;;;;;;;4993897;28;20038;-72
2021/12/15 02:42:07;;;;;;;50.58;16.67;;;;;;;;;;4985639;28;20435;-72
2021/12/15 02:44:34;;;;;;;48.95;15.35;;;;;;;;;;4994256;28;20045;-72
2021/12/15 02:46:59;;;;;;;39.13;15.00;;;;;;;;;;5010522;28;20087;-72
2021/12/15 02:49:27;;;;;;;41.72;14.50;;;;;;;;;;5015626;28;20048;-72
2021/12/15 02:51:57;;;;;;;45.65;15.43;;;;;;;;;;5020467;28;20041;-72
2021/12/15 02:54:26;;;;;;;46.30;15.50;;;;;;;;;;5022720;28;20037;-72
2021/12/15 02:56:53;;;;;;;43.63;14.70;;;;;;;;;;5008740;28;20029;-72
2021/12/15 02:59:26;;;;;;;39.95;14.60;;;;;;;;;;5011615;28;20034;-72
2021/12/15 03:05:12;;;;;;;47.72;15.27;;;;;;;;;;4949404;28;20052;-73
2021/12/15 03:07:49;;;;;;;47.05;15.05;;;;;;;;;;4991415;28;20541;-73
2021/12/15 03:15:44;;;;;;;42.30;15.23;;;;;;;;;;5009588;28;20069;-72
2021/12/15 03:18:20;;;;;;;42.85;14.75;;;;;;;;;;5009745;28;20049;-72
2021/12/15 03:20:50;;;;;;;45.55;15.90;;;;;;;;;;5013846;28;20056;-72
2021/12/15 03:23:30;;;;;;;49.15;16.20;;;;;;;;;;5010504;28;20077;-72
2021/12/15 03:25:57;;;;;;;48.47;15.75;;;;;;;;;;5010625;28;20034;-72
2021/12/15 03:36:38;;;;;;;42.70;15.20;;;;;;;;;;5014852;28;20671;-72
2021/12/15 03:39:06;;;;;;;44.42;15.35;;;;;;;;;;5007552;28;20026;-72
2021/12/15 03:41:32;;;;;;;41.50;14.93;;;;;;;;;;5011187;28;20046;-72
2021/12/15 03:43:57;;;;;;;47.60;15.45;;;;;;;;;;5010768;28;20041;-72
2021/12/15 03:46:22;;;;;;;45.15;15.93;;;;;;;;;;4993295;28;20041;-72
2021/12/15 03:48:49;;;;;;;40.95;14.65;;;;;;;;;;5016211;28;20024;-72
2021/12/15 03:51:14;;;;;;;43.17;14.68;;;;;;;;;;5030107;28;20045;-72
2021/12/15 03:53:42;;;;;;;47.55;14.80;;;;;;;;;;5011070;28;20029;-72
2021/12/15 03:56:10;;;;;;;46.50;15.45;;;;;;;;;;5029032;28;20033;-72
2021/12/15 03:58:36;;;;;;;46.40;16.15;;;;;;;;;;5026157;28;20110;-72
2021/12/15 04:01:07;;;;;;;44.08;16.02;;;;;;;;;;5028474;28;20083;-72
2021/12/15 04:03:36;;;;;;;47.50;14.85;;;;;;;;;;5023589;28;20036;-72
2021/12/15 04:06:06;;;;;;;46.05;15.73;;;;;;;;;;5017159;28;20176;-72
2021/12/15 04:08:34;;;;;;;42.72;14.77;;;;;;;;;;5028904;28;20504;-72
2021/12/15 04:11:00;;;;;;;46.70;15.90;;;;;;;;;;5028360;28;20412;-72
2021/12/15 04:13:25;;;;;;;47.13;15.70;;;;;;;;;;5009580;28;20037;-72
2021/12/15 04:15:57;;;;;;;46.92;16.40;;;;;;;;;;5023473;28;20037;-72
2021/12/15 04:18:24;;;;;;;47.80;16.45;;;;;;;;;;5003917;28;20026;-72
2021/12/15 04:20:51;;;;;;;43.58;15.88;;;;;;;;;;5028440;28;20522;-73
2021/12/15 04:23:19;;;;;;;41.22;15.27;;;;;;;;;;5010675;28;20883;-72
2021/12/15 04:25:46;;;;;;;50.53;15.98;;;;;;;;;;5028920;28;20025;-72
2021/12/15 04:28:19;;;;;;;43.65;15.40;;;;;;;;;;5031805;28;20136;-72
2021/12/15 04:30:48;;;;;;;;;;;;;;;;;;5028264;28;20725;-72
2021/12/15 04:33:42;;;;;;;42.60;15.30;;;;;;;;;;5015893;28;20455;-72
2021/12/15 04:36:09;;;;;;;46.72;15.30;;;;;;;;;;5030497;28;20036;-72
2021/12/15 04:38:36;;;;;;;38.13;15.05;;;;;;;;;;5027671;28;20026;-72
2021/12/15 04:41:05;;;;;;;44.58;15.57;;;;;;;;;;5029053;28;20128;-72
2021/12/15 04:43:33;;;;;;;42.55;15.55;;;;;;;;;;5025420;28;20133;-73
2021/12/15 04:46:00;;;;;;;42.85;14.75;;;;;;;;;;5026250;28;20033;-73
2021/12/15 04:48:26;;;;;;;43.67;15.10;;;;;;;;;;5029986;28;20087;-72
2021/12/15 04:50:51;;;;;;;41.67;15.35;;;;;;;;;;5021911;28;21500;-73
2021/12/15 04:53:16;;;;;;;43.42;14.65;;;;;;;;;;5006067;28;20033;-73
2021/12/15 04:55:42;;;;;;;42.10;15.18;;;;;;;;;;4992686;28;20042;-72
2021/12/15 04:58:11;;;;;;;44.53;14.98;;;;;;;;;;5009039;28;20029;-72
2021/12/15 05:00:40;;;;;;;47.75;16.23;;;;;;;;;;5009686;28;20117;-72
2021/12/15 05:03:06;;;;;;;39.42;13.95;;;;;;;;;;5015298;28;20929;-72
2021/12/15 05:05:34;;;;;;;44.17;14.55;;;;;;;;;;5026837;28;20034;-73
2021/12/15 05:08:00;;;;;;;41.97;15.63;;;;;;;;;;5014000;28;20101;-72
2021/12/15 05:10:26;;;;;;;46.38;15.70;;;;;;;;;;5019344;28;20558;-72
2021/12/15 05:12:52;;;;;;;44.22;16.08;;;;;;;;;;5015896;28;20124;-73
2021/12/15 05:15:18;;;;;;;46.60;16.90;;;;;;;;;;5002985;28;20022;-72
2021/12/15 05:17:43;;;;;;;50.45;16.20;;;;;;;;;;5014910;28;20042;-72
2021/12/15 05:20:11;;;;;;;51.80;16.10;;;;;;;;;;4997018;28;20507;-72
2021/12/15 05:22:37;;;;;;;46.13;15.40;;;;;;;;;;5008619;28;20048;-72
2021/12/15 05:25:05;;;;;;;47.85;16.60;;;;;;;;;;5009658;28;20032;-72
2021/12/15 05:27:30;;;;;;;46.95;16.42;;;;;;;;;;5005191;28;20030;-72
2021/12/15 05:29:57;;;;;;;42.97;16.00;;;;;;;;;;5008161;28;20041;-72
2021/12/15 05:32:23;;;;;;;50.85;15.85;;;;;;;;;;5010711;28;20050;-72
2021/12/15 05:34:51;;;;;;;38.60;15.38;;;;;;;;;;5020369;28;20045;-72
2021/12/15 05:37:18;;;;;;;43.88;15.38;;;;;;;;;;5000300;28;20527;-73
2021/12/15 05:39:45;;;;;;;45.03;15.25;;;;;;;;;;5010675;28;20068;-72
2021/12/15 05:42:11;;;;;;;44.10;15.10;;;;;;;;;;5006870;28;20034;-72
2021/12/15 05:44:37;;;;;;;42.15;14.95;;;;;;;;;;5015725;28;20049;-73
2021/12/15 05:47:04;;;;;;;42.92;15.65;;;;;;;;;;5017375;28;20046;-73
2021/12/15 05:49:30;;;;;;;45.33;16.55;;;;;;;;;;5020316;28;20060;-72
2021/12/15 05:51:56;;;;;;;41.05;14.60;;;;;;;;;;5003818;28;20026;-72
2021/12/15 05:54:21;;;;;;;39.63;14.38;;;;;;;;;;5006326;28;20060;-72
2021/12/15 05:56:47;;;;;;;42.20;14.73;;;;;;;;;;5025048;28;20037;-72
2021/12/15 05:59:13;;;;;;;41.10;13.68;;;;;;;;;;5010559;28;20041;-73
2021/12/15 06:01:38;;;;;;;45.30;15.48;;;;;;;;;;5007975;28;20057;-72
2021/12/15 06:04:06;;;;;;;44.35;15.40;;;;;;;;;;5012420;28;20034;-73
2021/12/15 06:06:31;;;;;;;38.97;14.68;;;;;;;;;;5025080;28;20026;-73
2021/12/15 06:08:58;;;;;;;42.00;16.40;;;;;;;;;;4985700;28;20149;-72
2021/12/15 06:11:24;;;;;;;48.50;17.50;;;;;;;;;;5024569;28;20044;-72
2021/12/15 06:13:50;;;;;;;48.95;17.38;;;;;;;;;;5013244;28;20034;-73
2021/12/15 06:16:18;;;;;;;51.72;21.33;;;;;;;;;;5001319;28;20041;-72
2021/12/15 06:18:44;;;;;;;52.15;18.88;;;;;;;;;;4987623;28;20507;-73
2021/12/15 06:21:10;;;;;;;47.50;17.05;;;;;;;;;;5002767;28;20072;-72
2021/12/15 06:23:36;;;;;;;52.25;18.40;;;;;;;;;;5018858;28;20467;-72
2021/12/15 06:26:03;;;;;;;55.65;18.92;;;;;;;;;;4993610;28;20132;-73
2021/12/15 06:28:30;;;;;;;54.58;17.10;;;;;;;;;;5017489;28;20038;-72
2021/12/15 06:30:58;;;;;;;49.92;17.90;;;;;;;;;;5002911;28;20565;-73
2021/12/15 06:33:25;;;;;;;51.05;17.45;;;;;;;;;;4997206;28;20426;-72
2021/12/15 06:35:53;;;;;;;50.47;17.50;;;;;;;;;;5016739;28;20042;-72
2021/12/15 06:38:23;;;;;;;49.72;17.17;;;;;;;;;;5016394;28;20042;-73
2021/12/15 06:40:49;;;;;;;56.80;19.42;;;;;;;;;;5010545;28;20054;-73
2021/12/15 06:43:15;;;;;;;43.05;16.20;;;;;;;;;;4989804;28;20041;-72
2021/12/15 06:45:56;;;;;;;48.50;17.42;;;;;;;;;;5007557;28;20103;-73
2021/12/15 06:59:17;;;;;;;45.13;16.17;;;;;;;;;;5026091;28;20040;-72
2021/12/15 07:01:42;;;;;;;47.22;16.35;;;;;;;;;;5006966;28;20041;-72
2021/12/15 07:04:08;;;;;;;49.53;16.50;;;;;;;;;;5025844;28;20611;-72
2021/12/15 07:06:33;;;;;;;59.90;19.98;;;;;;;;;;5028233;28;20030;-72
2021/12/15 07:08:59;;;;;;;56.22;19.48;;;;;;;;;;5004877;28;20041;-72
2021/12/15 07:11:24;;;;;;;55.30;19.42;;;;;;;;;;5022545;28;20042;-75
2021/12/15 07:13:50;;;;;;;61.78;19.98;;;;;;;;;;5028415;28;20037;-74
2021/12/15 07:16:18;;;;;;;47.53;17.08;;;;;;;;;;5016323;28;20041;-75
2021/12/15 07:18:52;;;;;;;56.88;19.17;;;;;;;;;;5010124;28;20029;-75
2021/12/15 07:21:20;;;;;;;52.80;17.58;;;;;;;;;;5017826;28;20050;-75
2021/12/15 07:23:47;;;;;;;53.70;18.25;;;;;;;;;;5028451;28;20042;-76
2021/12/15 07:26:12;;;;;;;57.33;18.45;;;;;;;;;;5030782;28;20446;-77
2021/12/15 07:28:38;;;;;;;61.13;21.75;;;;;;;;;;5029392;28;20119;-76
2021/12/15 07:31:04;;;;;;;52.70;17.88;;;;;;;;;;5020958;28;20455;-75
2021/12/15 07:33:30;;;;;;;52.45;17.92;;;;;;;;;;5029540;28;20064;-76
2021/12/15 07:35:56;;;;;;;51.78;18.95;;;;;;;;;;5013615;28;20640;-74
2021/12/15 07:38:22;;;;;;;48.03;17.65;;;;;;;;;;5035278;28;20029;-75
2021/12/15 07:40:47;;;;;;;44.03;15.73;;;;;;;;;;5007528;28;20092;-75
2021/12/15 07:43:23;;;;;;;39.40;15.52;;;;;;;;;;5028510;28;20044;-75
2021/12/15 07:45:55;;;;;;;41.30;15.13;;;;;;;;;;5027179;28;20029;-75
2021/12/15 07:48:22;;;;;;;44.95;16.38;;;;;;;;;;5029901;28;20104;-75
2021/12/15 07:50:52;;;;;;;46.00;15.48;;;;;;;;;;5027103;28;20069;-75
2021/12/15 07:53:18;;;;;;;45.05;15.60;;;;;;;;;;5010293;28;20042;-75
2021/12/15 07:55:45;;;;;;;44.45;16.15;;;;;;;;;;5027068;28;20041;-75
2021/12/15 07:58:11;;;;;;;44.10;15.57;;;;;;;;;;5025874;28;20049;-75
2021/12/15 08:00:41;;;;;;;45.53;15.70;;;;;;;;;;5027734;28;20030;-75
2021/12/15 08:03:07;;;;;;;36.83;14.40;;;;;;;;;;4993661;28;20038;-77
2021/12/15 08:05:33;;;;;;;46.08;15.57;;;;;;;;;;5027349;28;20022;-80
2021/12/15 08:07:59;;;;;;;44.47;15.02;;;;;;;;;;5026925;28;20579;-77
2021/12/15 08:10:24;;;;;;;39.97;15.43;;;;;;;;;;5027343;28;20116;-79
2021/12/15 08:12:50;;;;;;;40.10;14.27;;;;;;;;;;5002194;28;20029;-81
2021/12/15 08:15:18;;;;;;;44.05;16.08;;;;;;;;;;4986513;28;20029;-79
2021/12/15 08:17:48;;;;;;;42.65;14.90;;;;;;;;;;5003727;28;20113;-70
2021/12/15 08:20:15;;;;;;;41.25;14.88;;;;;;;;;;4997445;28;20038;-72
2021/12/15 08:22:41;;;;;;;46.38;15.43;;;;;;;;;;5004734;28;20538;-73
2021/12/15 08:25:09;;;;;;;40.90;15.15;;;;;;;;;;5000622;28;20042;-73
2021/12/15 08:27:34;;;;;;;42.17;15.50;;;;;;;;;;4999285;28;20418;-72
2021/12/15 08:29:59;;;;;;;34.72;14.50;;;;;;;;;;5004010;28;20033;-73
2021/12/15 08:32:25;;;;;;;42.78;15.70;;;;;;;;;;5009095;28;20046;-75
2021/12/15 08:34:50;;;;;;;46.88;15.65;;;;;;;;;;5005882;28;20040;-79
2021/12/15 08:37:16;;;;;;;40.05;15.27;;;;;;;;;;5006767;28;20071;-79
2021/12/15 08:39:44;;;;;;;44.17;15.00;;;;;;;;;;4995726;28;20030;-79
2021/12/15 08:42:11;;;;;;;44.45;15.77;;;;;;;;;;5023352;28;20039;-83
2021/12/15 08:44:37;;;;;;;44.95;16.05;;;;;;;;;;5002164;28;20066;-77
2021/12/15 08:47:05;;;;;;;38.67;14.25;;;;;;;;;;5014846;28;20455;-79
2021/12/15 08:49:30;;;;;;;45.10;16.00;;;;;;;;;;5018276;28;20057;-74
2021/12/15 08:51:56;;;;;;;45.72;15.25;;;;;;;;;;5026080;28;20115;-74
2021/12/15 08:54:22;;;;;;;42.85;15.60;;;;;;;;;;5023684;28;20594;-74
2021/12/15 08:56:50;;;;;;;40.25;14.95;;;;;;;;;;5014443;28;20033;-75
2021/12/15 08:59:16;;;;;;;39.45;15.38;;;;;;;;;;5026033;28;20058;-78
2021/12/15 09:01:43;;;;;;;37.55;14.82;;;;;;;;;;5026437;28;20105;-71
2021/12/15 09:04:09;;;;;;;43.08;15.32;;;;;;;;;;5026598;28;20103;-73
2021/12/15 09:06:35;;;;;;;42.10;15.77;;;;;;;;;;5027142;28;20048;-70
2021/12/15 09:09:03;;;;;;;39.95;15.55;;;;;;;;;;5025139;28;20779;-71
2021/12/15 09:11:29;;;;;;;44.90;15.65;;;;;;;;;;5024906;28;20537;-71
2021/12/15 09:13:57;;;;;;;41.58;16.95;;;;;;;;;;5007648;28;20042;-72
2021/12/15 09:16:25;;;;;;;40.05;14.88;;;;;;;;;;5014969;28;20049;-75
2021/12/15 09:18:51;;;;;;;37.55;14.77;;;;;;;;;;5025704;28;20025;-72
2021/12/15 09:21:19;;;;;;;43.83;15.60;;;;;;;;;;5024788;28;20127;-73
2021/12/15 09:23:45;;;;;;;37.03;14.55;;;;;;;;;;5025203;28;20649;-74
2021/12/15 09:26:11;;;;;;;47.50;16.10;;;;;;;;;;5025942;28;20120;-72
2021/12/15 09:28:37;;;;;;;44.67;16.20;;;;;;;;;;5024745;28;20091;-73
2021/12/15 09:31:05;;;;;;;37.63;15.25;;;;;;;;;;5017181;28;20052;-70
2021/12/15 09:33:46;;;;;;;47.53;16.30;;;;;;;;;;5026088;28;20025;-74
2021/12/15 09:36:14;;;;;;;40.15;15.27;;;;;;;;;;5023593;28;20092;-74
2021/12/15 09:38:43;;;;;;;41.17;15.02;;;;;;;;;;5024375;28;20091;-74
2021/12/15 09:41:11;;;;;;;39.20;14.70;;;;;;;;;;5024450;28;20045;-75
2021/12/15 09:43:37;;;;;;;43.80;14.93;;;;;;;;;;5007426;28;20045;-78
2021/12/15 09:46:12;;;;;;;37.08;14.50;;;;;;;;;;5023722;28;20442;-79
2021/12/15 09:57:25;;;;;;;39.05;15.73;;;;;;;;;;5012174;28;20053;-71
2021/12/15 10:19:23;;;;;;;41.78;15.45;;;;;;;;;;5022391;28;20045;-70
2021/12/15 10:21:57;;;;;;;44.10;16.17;;;;;;;;;;5023560;28;20053;-70
2021/12/15 10:24:48;;;;;;;39.08;15.07;;;;;;;;;;5022543;28;20068;-72
2021/12/15 10:27:19;;;;;;;41.30;14.63;;;;;;;;;;5012967;28;20523;-72
2021/12/15 10:30:02;;;;;;;38.28;15.73;;;;;;;;;;5017338;28;20033;-74
2021/12/15 10:32:30;;;;;;;39.90;16.67;;;;;;;;;;5022974;28;20124;-73
2021/12/15 10:35:02;;;;;;;37.70;15.35;;;;;;;;;;5025779;28;20076;-75
2021/12/15 10:37:28;;;;;;;39.13;15.55;;;;;;;;;;5025080;28;20502;-74
2021/12/15 10:40:15;;;;;;;39.78;15.80;;;;;;;;;;5024847;28;20030;-79
2021/12/15 10:42:40;;;;;;;43.63;16.35;;;;;;;;;;5009855;28;20524;-81
2021/12/15 10:45:09;;;;;;;48.38;15.93;;;;;;;;;;5024522;28;20065;-76
2021/12/15 10:47:49;;;;;;;43.65;15.88;;;;;;;;;;5026493;28;20046;-77
2021/12/15 10:50:19;;;;;;;41.13;16.50;;;;;;;;;;5025209;28;20054;-77
2021/12/15 10:52:59;;;;;;;38.97;17.20;;;;;;;;;;5029049;28;20034;-77
2021/12/15 10:55:31;;;;;;;44.15;16.98;;;;;;;;;;5003071;28;20108;-77
2021/12/15 10:57:56;;;;;;;46.60;21.23;;;;;;;;;;5009788;28;20112;-78
2021/12/15 11:00:22;;;;;;;47.40;17.27;;;;;;;;;;5011521;28;20473;-75
2021/12/15 11:02:48;;;;;;;43.53;17.98;;;;;;;;;;5011265;28;20038;-77
2021/12/15 11:05:17;;;;;;;39.15;16.98;;;;;;;;;;5010269;28;20033;-78
2021/12/15 11:07:44;;;;;;;34.38;19.73;;;;;;;;;;5027505;28;20556;-80
2021/12/15 11:10:21;;;;;;;39.92;16.35;;;;;;;;;;5029136;28;20033;-76
2021/12/15 11:13:11;;;;;;;38.85;16.48;;;;;;;;;;5010589;28;20022;-77
2021/12/15 11:15:55;;;;;;;43.95;17.17;;;;;;;;;;5001866;28;20040;-77
2021/12/15 11:18:27;;;;;;;39.97;15.75;;;;;;;;;;5026697;28;20071;-76
2021/12/15 11:20:59;;;;;;;39.63;15.83;;;;;;;;;;5025670;28;20119;-78
2021/12/15 11:23:27;;;;;;;40.25;15.10;;;;;;;;;;5027531;28;20280;-77
2021/12/15 11:25:56;;;;;;;38.15;15.35;;;;;;;;;;5024968;28;20098;-77
2021/12/15 11:28:26;;;;;;;43.42;16.50;;;;;;;;;;5025570;28;20526;-74
2021/12/15 11:30:59;;;;;;;38.47;16.30;;;;;;;;;;5025311;28;20021;-75
2021/12/15 11:33:27;;;;;;;42.15;16.98;;;;;;;;;;5027331;28;20038;-74
2021/12/15 11:35:57;;;;;;;41.10;20.23;;;;;;;;;;5009556;28;20034;-74
2021/12/15 11:38:39;;;;;;;38.35;15.90;;;;;;;;;;5011856;28;20069;-74
2021/12/15 11:41:18;;;;;;;37.47;15.02;;;;;;;;;;5027467;28;20546;-74
2021/12/15 11:43:51;;;;;;;40.17;16.70;;;;;;;;;;5000082;28;20030;-74
2021/12/15 11:46:29;;;;;;;38.80;16.88;;;;;;;;;;5021270;28;20064;-74
2021/12/15 11:49:07;;;;;;;39.15;14.60;;;;;;;;;;5022613;28;20025;-74
2021/12/15 11:52:19;;;;;;;37.75;15.57;;;;;;;;;;5004306;28;20050;-74
2021/12/15 11:54:49;;;;;;;41.13;15.50;;;;;;;;;;5005490;28;20068;-75
2021/12/15 11:57:27;;;;;;;38.90;15.73;;;;;;;;;;5024725;28;20487;-74
2021/12/15 11:59:55;;;;;;;37.65;15.57;;;;;;;;;;5023965;28;20038;-74
2021/12/15 12:02:28;;;;;;;36.72;15.85;;;;;;;;;;5005417;28;20047;-74
2021/12/15 12:05:19;;;;;;;34.42;15.95;;;;;;;;;;5020677;28;20045;-74
2021/12/15 12:07:47;;;;;;;41.95;16.88;;;;;;;;;;5019436;28;20180;-74
2021/12/15 12:10:47;;;;;;;43.80;16.98;;;;;;;;;;5006154;28;20064;-74
2021/12/15 12:13:21;;;;;;;38.25;16.27;;;;;;;;;;4991252;28;20034;-74
2021/12/15 12:15:49;;;;;;;40.70;16.40;;;;;;;;;;5006240;28;20037;-75
2021/12/15 12:18:18;;;;;;;40.00;17.10;;;;;;;;;;5008533;28;20025;-76
2021/12/15 12:20:47;;;;;;;43.90;17.77;;;;;;;;;;5007418;28;20069;-76
2021/12/15 12:23:15;;;;;;;37.83;16.33;;;;;;;;;;5006418;28;20081;-75
2021/12/15 12:25:47;;;;;;;42.45;16.67;;;;;;;;;;5001833;28;20652;-75
2021/12/15 12:28:19;;;;;;;36.45;15.32;;;;;;;;;;5007375;28;20852;-77
2021/12/15 12:30:51;;;;;;;40.83;17.60;;;;;;;;;;5002510;28;20072;-77
2021/12/15 12:33:18;;;;;;;36.30;16.55;;;;;;;;;;5008195;28;20523;-77
2021/12/15 12:35:50;;;;;;;38.22;17.55;;;;;;;;;;5006515;28;20474;-77
2021/12/15 12:38:25;;;;;;;36.90;15.98;;;;;;;;;;5012491;28;20061;-77
2021/12/15 12:40:56;;;;;;;39.10;22.20;;;;;;;;;;5013935;28;20030;-73
2021/12/15 12:43:30;;;;;;;45.15;17.20;;;;;;;;;;5021434;28;20136;-74
2021/12/15 12:46:20;;;;;;;43.05;17.20;;;;;;;;;;5015006;28;20026;-75
2021/12/15 13:00:50;;;;;;;34.85;16.20;;;;;;;;;;4973776;28;20041;-75
2021/12/15 13:03:38;;;;;;;39.50;16.15;;;;;;;;;;4998732;28;20129;-75
2021/12/15 13:06:14;;;;;;;39.20;16.52;;;;;;;;;;4998990;28;20084;-76
2021/12/15 13:08:47;;;;;;;39.03;16.35;;;;;;;;;;4997900;28;20089;-75
2021/12/15 13:11:18;;;;;;;36.55;15.77;;;;;;;;;;5007844;28;20089;-75
2021/12/15 13:14:13;;;;;;;38.42;15.98;;;;;;;;;;5008876;28;20112;-75
2021/12/15 13:16:55;;;;;;;36.00;15.85;;;;;;;;;;4980524;28;20037;-75
2021/12/15 13:19:31;;;;;;;37.08;15.30;;;;;;;;;;4998867;28;20145;-72
2021/12/15 13:30:49;;;;;;;37.55;15.82;;;;;;;;;;5006260;28;20467;-72
2021/12/15 13:33:27;;;;;;;37.90;16.10;;;;;;;;;;5007731;28;20056;-76
2021/12/15 13:35:55;;;;;;;33.83;15.55;;;;;;;;;;5010142;28;20040;-76
2021/12/15 13:38:34;;;;;;;37.17;15.88;;;;;;;;;;4993412;28;20065;-76
2021/12/15 13:41:25;;;;;;;36.85;15.35;;;;;;;;;;5003809;28;20050;-71
2021/12/15 13:44:16;;;;;;;35.47;16.58;;;;;;;;;;5008311;28;20120;-72
2021/12/15 13:46:47;;;;;;;39.33;16.83;;;;;;;;;;4995492;28;20129;-76
2021/12/15 13:49:23;;;;;;;34.83;16.23;;;;;;;;;;4998315;28;20077;-72
2021/12/15 13:52:04;;;;;;;36.72;16.08;;;;;;;;;;5000612;28;20033;-73
2021/12/15 13:54:32;;;;;;;38.85;15.63;;;;;;;;;;5005964;28;20022;-73
2021/12/15 13:57:03;;;;;;;37.05;15.82;;;;;;;;;;5003353;28;20117;-71
2021/12/15 13:59:42;;;;;;;40.20;16.67;;;;;;;;;;5003584;28;20048;-73
2021/12/15 14:02:25;;;;;;;37.83;15.85;;;;;;;;;;4988426;28;20854;-74
2021/12/15 14:05:00;;;;;;;38.10;16.27;;;;;;;;;;5003492;28;20034;-72
2021/12/15 14:07:28;;;;;;;36.70;15.98;;;;;;;;;;4995989;28;20812;-72
2021/12/15 14:10:21;;;;;;;39.00;16.30;;;;;;;;;;4999662;28;20706;-71
2021/12/15 14:12:46;;;;;;;35.30;15.95;;;;;;;;;;5004459;28;20076;-72
2021/12/15 14:15:40;;;;;;;36.80;16.60;;;;;;;;;;5007578;28;20029;-71
2021/12/15 14:18:32;;;;;;;35.88;16.67;;;;;;;;;;4992810;28;20042;-71
2021/12/15 14:21:06;;;;;;;38.88;16.60;;;;;;;;;;5005932;28;20400;-77
2021/12/15 14:23:36;;;;;;;35.90;15.63;;;;;;;;;;5009368;28;20475;-77
2021/12/15 14:26:05;;;;;;;34.95;15.02;;;;;;;;;;5002880;28;20042;-78
2021/12/15 14:28:38;;;;;;;40.55;15.77;;;;;;;;;;5000319;28;20042;-74
2021/12/15 14:31:08;;;;;;;39.20;15.93;;;;;;;;;;5005448;28;20037;-78
2021/12/15 14:33:46;;;;;;;36.88;16.35;;;;;;;;;;5007970;28;20037;-78
2021/12/15 14:36:21;;;;;;;36.97;16.13;;;;;;;;;;4995968;28;20080;-76
2021/12/15 14:38:53;;;;;;;38.20;17.05;;;;;;;;;;4984288;28;20030;-75
2021/12/15 14:41:40;;;;;;;80.90;29.17;;;;;;;;;;5007303;28;20088;-76
2021/12/15 14:44:15;;;;;;;63.60;24.13;;;;;;;;;;4992212;28;20037;-76
2021/12/15 14:46:51;;;;;;;61.33;22.50;;;;;;;;;;5009534;28;20045;-74
2021/12/15 14:49:34;;;;;;;56.92;22.52;;;;;;;;;;4992398;28;20459;-75
2021/12/15 14:52:05;;;;;;;50.67;20.90;;;;;;;;;;5019300;28;20037;-75
2021/12/15 14:54:32;;;;;;;45.80;19.42;;;;;;;;;;5007823;28;20272;-75
2021/12/15 14:57:07;;;;;;;47.15;20.17;;;;;;;;;;5003954;28;20118;-76
2021/12/15 14:59:36;;;;;;;45.78;18.85;;;;;;;;;;5010005;28;20080;-77
2021/12/15 15:02:10;;;;;;;50.75;20.77;;;;;;;;;;5003699;28;20034;-73
2021/12/15 15:04:37;;;;;;;41.10;17.73;;;;;;;;;;4992478;28;20053;-74
2021/12/15 15:07:07;;;;;;;38.72;17.27;;;;;;;;;;4990879;28;20057;-77
2021/12/15 15:09:37;;;;;;;42.40;17.88;;;;;;;;;;5009298;28;20025;-73
2021/12/15 15:12:24;;;;;;;40.72;16.50;;;;;;;;;;4991852;28;20292;-73
2021/12/15 15:14:59;;;;;;;47.92;18.55;;;;;;;;;;5008248;28;20045;-76
2021/12/15 15:17:48;;;;;;;42.80;18.38;;;;;;;;;;4998470;28;20134;-75
2021/12/15 15:20:17;;;;;;;43.65;18.38;;;;;;;;;;5008436;28;20044;-74
2021/12/15 15:22:45;;;;;;;35.92;16.85;;;;;;;;;;5007918;28;20080;-72
2021/12/15 15:25:14;;;;;;;42.05;17.83;;;;;;;;;;5009042;28;20060;-75
2021/12/15 15:27:41;;;;;;;39.38;16.88;;;;;;;;;;4991846;28;20091;-75
2021/12/15 15:30:11;;;;;;;40.42;16.60;;;;;;;;;;5008303;28;20049;-75
2021/12/15 15:32:37;;;;;;;40.67;16.92;;;;;;;;;;4989855;28;20530;-76
2021/12/15 15:35:11;;;;;;;41.03;17.65;;;;;;;;;;5008194;28;20046;-74
2021/12/15 15:37:37;;;;;;;39.22;16.70;;;;;;;;;;4999038;28;20062;-74
2021/12/15 15:40:16;;;;;;;41.45;17.52;;;;;;;;;;4990199;28;20586;-74
2021/12/15 15:42:44;;;;;;;38.15;17.45;;;;;;;;;;5007607;28;20025;-77
2021/12/15 15:45:23;;;;;;;39.60;16.10;;;;;;;;;;4992435;28;20045;-77
2021/12/15 15:47:49;;;;;;;37.45;16.45;;;;;;;;;;4997765;28;20055;-79
2021/12/15 15:50:15;;;;;;;38.65;17.75;;;;;;;;;;5008651;28;20415;-78
2021/12/15 15:52:45;;;;;;;40.05;16.92;;;;;;;;;;4989044;28;20041;-74
2021/12/15 15:55:11;;;;;;;39.08;15.80;;;;;;;;;;5000997;28;20060;-72
2021/12/15 15:57:37;;;;;;;39.72;16.65;;;;;;;;;;4980534;28;20415;-73
2021/12/15 16:00:04;;;;;;;39.55;16.48;;;;;;;;;;4983844;28;20078;-74
2021/12/15 16:02:30;;;;;;;33.05;15.30;;;;;;;;;;4999771;28;20408;-78
2021/12/15 16:04:55;;;;;;;36.40;16.25;;;;;;;;;;5003405;28;20597;-76
2021/12/15 16:07:22;;;;;;;39.13;16.80;;;;;;;;;;4999801;28;20140;-77
2021/12/15 16:09:49;;;;;;;37.05;16.23;;;;;;;;;;5006258;28;20073;-76